Time;durP1;ratioP1;P1;durP2;ratioP2;P2;SDS_P1;SDS_P2;PMS_P1;PMS_P2;Temp;Humidity;BMP_temperature;BMP_pressure;BME280_temperature;BME280_humidity;BME280_pressure;Samples;Min_cycle;Max_cycle;Signal;HPM_P1;HPM_P2
2022/12/27 00:01:13;;;;;;;12.75;4.78;;;;;;;2.89;100.00;67098.78;4956512;28;20508;-84
2022/12/27 00:03:39;;;;;;;8.50;3.50;;;;;;;;;;4954966;28;20098;-84
2022/12/27 00:06:07;;;;;;;7.32;3.10;;;;;;;2.90;100.00;67094.09;4956696;28;20050;-84
2022/12/27 00:08:32;;;;;;;11.48;4.15;;;;;;;;;;4960348;28;20067;-84
2022/12/27 00:11:04;;;;;;;11.27;5.20;;;;;;;2.90;100.00;67099.91;4961633;28;20077;-83
2022/12/27 00:13:30;;;;;;;12.85;4.28;;;;;;;;;;4970271;28;20063;-83
2022/12/27 00:16:11;;;;;;;10.13;4.03;;;;;;;2.90;100.00;67099.91;4960122;28;20043;-83
2022/12/27 00:18:38;;;;;;;11.82;4.43;;;;;;;2.87;100.00;67096.53;4958135;28;20031;-85
2022/12/27 00:21:04;;;;;;;9.25;4.40;;;;;;;2.86;100.00;67095.41;4959044;28;20045;-83
2022/12/27 00:23:33;;;;;;;12.95;3.95;;;;;;;2.90;100.00;67092.03;4956612;28;20597;-84
2022/12/27 00:26:02;;;;;;;9.80;4.00;;;;;;;;;;4955035;28;20403;-84
2022/12/27 00:28:30;;;;;;;6.93;3.92;;;;;;;;;;4961663;28;20380;-84
2022/12/27 00:30:56;;;;;;;8.85;3.80;;;;;;;2.87;100.00;67091.28;4960181;28;20043;-84
2022/12/27 00:33:22;;;;;;;13.05;4.03;;;;;;;2.87;100.00;67088.66;4961096;28;20109;-85
2022/12/27 00:35:47;;;;;;;9.98;4.13;;;;;;;2.88;100.00;67097.09;4961365;28;20069;-84
2022/12/27 00:38:13;;;;;;;10.18;4.10;;;;;;;;;;4961179;28;20159;-85
2022/12/27 00:40:39;;;;;;;11.65;4.88;;;;;;;2.89;100.00;67092.97;4962304;28;20141;-85
2022/12/27 00:43:04;;;;;;;10.63;3.95;;;;;;;2.92;100.00;67101.63;4961997;28;20047;-85
2022/12/27 00:45:30;;;;;;;16.33;4.78;;;;;;;2.88;100.00;67092.41;4963837;28;20039;-84
2022/12/27 00:47:55;;;;;;;10.45;4.15;;;;;;;;;;4962484;28;20039;-84
2022/12/27 00:50:20;;;;;;;9.68;4.50;;;;;;;2.89;100.00;67104.03;4961499;28;20118;-85
2022/12/27 00:52:45;;;;;;;10.88;3.83;;;;;;;2.92;100.00;67096.91;4961462;28;20070;-84
2022/12/27 00:55:11;;;;;;;11.68;4.63;;;;;;;2.90;100.00;67102.53;4957964;28;20035;-84
2022/12/27 00:57:36;;;;;;;10.80;4.10;;;;;;;;;;4963008;28;20042;-84
2022/12/27 01:00:02;;;;;;;9.02;4.25;;;;;;;;;;4962887;28;20053;-85
2022/12/27 01:02:28;;;;;;;9.13;4.55;;;;;;;2.89;100.00;67098.22;4959956;28;20034;-85
2022/12/27 01:04:53;;;;;;;10.85;4.57;;;;;;;;;;4961360;28;20459;-84
2022/12/27 01:07:19;;;;;;;11.13;3.92;;;;;;;2.86;100.00;67095.41;4962180;28;20051;-85
2022/12/27 01:09:44;;;;;;;10.80;5.40;;;;;;;;;;4964724;28;20043;-84
2022/12/27 01:12:09;;;;;;;7.97;4.47;;;;;;;2.82;100.00;67090.31;4960093;28;20106;-84
2022/12/27 01:14:35;;;;;;;10.35;4.05;;;;;;;;;;4958310;28;20057;-84
2022/12/27 01:17:00;;;;;;;7.72;5.22;;;;;;;2.78;100.00;67086.38;4958764;28;20129;-84
2022/12/27 01:19:25;;;;;;;10.98;4.05;;;;;;;2.77;100.00;67085.28;4959148;28;20043;-84
2022/12/27 01:21:51;;;;;;;15.25;4.80;;;;;;;2.78;100.00;67086.38;4959855;28;20058;-84
2022/12/27 01:24:16;;;;;;;11.95;5.32;;;;;;;2.77;100.00;67084.72;4961625;28;20066;-84
2022/12/27 01:26:41;;;;;;;7.45;3.63;;;;;;;;;;4960678;28;20039;-84
2022/12/27 01:29:10;;;;;;;15.05;5.40;;;;;;;;;;4955565;28;20400;-84
2022/12/27 01:31:35;;;;;;;12.13;5.13;;;;;;;2.77;100.00;67085.28;4958010;28;20062;-84
2022/12/27 01:34:00;;;;;;;14.93;5.53;;;;;;;2.75;100.00;67077.75;4959398;28;20078;-84
2022/12/27 01:36:28;;;;;;;10.90;5.00;;;;;;;2.74;100.00;67083.97;4959384;28;20042;-84
2022/12/27 01:38:54;;;;;;;13.15;4.90;;;;;;;2.73;100.00;67080.75;4959161;28;20073;-84
2022/12/27 01:44:38;;;;;;;8.77;4.60;;;;;;;2.66;100.00;67073.44;4957755;28;20095;-84
2022/12/27 01:47:21;;;;;;;14.50;4.82;;;;;;;2.66;100.00;67072.88;4959759;28;20043;-85
2022/12/27 01:50:10;;;;;;;16.33;6.53;;;;;;;2.63;100.00;67064.78;4960246;28;20043;-85
2022/12/27 01:52:45;;;;;;;11.05;5.10;;;;;;;;;;4973087;28;20055;-85
2022/12/27 01:55:23;;;;;;;15.07;5.63;;;;;;;2.63;100.00;67064.22;4956557;28;20099;-85
2022/12/27 01:57:50;;;;;;;12.30;5.22;;;;;;;;;;4959472;28;20136;-85
2022/12/27 02:00:16;;;;;;;13.68;4.82;;;;;;;2.65;100.00;67071.75;4957842;28;20035;-85
2022/12/27 02:02:41;;;;;;;13.60;5.38;;;;;;;;;;4960117;28;20050;-86
2022/12/27 02:05:11;;;;;;;11.65;4.88;;;;;;;2.65;100.00;67072.31;4957125;28;20399;-85
2022/12/27 02:07:55;;;;;;;13.40;5.03;;;;;;;;;;4958420;28;20368;-83
2022/12/27 02:10:20;;;;;;;9.57;4.97;;;;;;;2.61;100.00;67067.22;4957754;28;20549;-83
2022/12/27 02:12:46;;;;;;;9.45;4.70;;;;;;;2.61;100.00;67062.53;4957303;28;20498;-83
2022/12/27 02:15:11;;;;;;;11.32;6.05;;;;;;;;;;4956624;28;20046;-83
2022/12/27 02:17:37;;;;;;;9.27;4.82;;;;;;;2.64;100.00;67073.25;4955865;28;20097;-83
2022/12/27 02:20:16;;;;;;;12.48;5.57;;;;;;;;;;4954625;28;20436;-83
2022/12/27 02:25:49;;;;;;;9.40;4.80;;;;;;;;;;4978205;28;20117;-83
2022/12/27 02:28:45;;;;;;;11.18;5.45;;;;;;;2.64;100.00;67070.59;4959252;28;20047;-84
2022/12/27 02:31:34;;;;;;;11.50;5.35;;;;;;;2.67;100.00;67074.00;4958619;28;20042;-83
2022/12/27 02:34:05;;;;;;;13.60;5.75;;;;;;;2.68;100.00;67075.69;4954754;28;20167;-83
2022/12/27 02:36:35;;;;;;;11.68;4.97;;;;;;;2.65;100.00;67066.50;4956156;28;20050;-82
2022/12/27 02:39:01;;;;;;;12.73;4.72;;;;;;;;;;4956815;28;20046;-83
2022/12/27 02:55:27;;;;;;;8.65;5.05;;;;;;;;;;4976790;28;20537;-83
2022/12/27 02:57:52;;;;;;;13.25;6.78;;;;;;;;;;4982026;28;20035;-83
2022/12/27 03:03:22;;;;;;;9.10;3.92;;;;;;;2.85;100.00;67093.72;4976887;28;20288;-82
2022/12/27 03:08:55;;;;;;;6.75;3.25;;;;;;;;;;4969252;28;20189;-83
2022/12/27 03:17:50;;;;;;;18.10;6.00;;;;;;;2.76;100.00;67078.31;4958880;28;20050;-83
2022/12/27 03:25:47;;;;;;;10.65;4.88;;;;;;;;;;4976111;28;20108;-83
2022/12/27 03:39:46;;;;;;;9.95;4.65;;;;;;;2.90;100.00;67094.09;4977760;28;20057;-83
2022/12/27 03:45:02;;;;;;;7.40;4.32;;;;;;;;;;4955047;28;20073;-83
2022/12/27 03:47:54;;;;;;;8.63;4.45;;;;;;;2.97;100.00;67106.69;4953514;28;20047;-83
2022/12/27 03:50:34;;;;;;;11.13;4.70;;;;;;;;;;4950044;28;20066;-83
2022/12/27 03:53:06;;;;;;;8.90;4.13;;;;;;;;;;4956328;28;20034;-83
2022/12/27 03:55:32;;;;;;;7.85;4.03;;;;;;;3.06;100.00;67119.47;4957734;28;20129;-83
2022/12/27 03:57:57;;;;;;;9.13;4.07;;;;;;;;;;4956470;28;20513;-83
2022/12/27 04:00:22;;;;;;;10.63;4.00;;;;;;;;;;4953022;28;20046;-83
2022/12/27 04:02:48;;;;;;;9.98;5.22;;;;;;;3.07;100.00;67117.97;4957142;28;20404;-82
2022/12/27 04:05:13;;;;;;;14.02;4.82;;;;;;;;;;4955139;28;20418;-83
2022/12/27 04:07:38;;;;;;;12.20;4.35;;;;;;;;;;4958077;28;20053;-83
2022/12/27 04:34:48;;;;;;;12.75;5.15;;;;;;;2.83;100.00;67092.03;4982490;28;20050;-83
2022/12/27 04:37:17;;;;;;;10.77;4.28;;;;;;;2.82;100.00;67090.91;4960682;28;20050;-83
2022/12/27 04:56:06;;;;;;;16.75;9.05;;;;;;;;;;4960535;28;20074;-83
2022/12/27 04:58:32;;;;;;;15.95;7.28;;;;;;;;;;4961519;28;20074;-84
2022/12/27 05:03:48;;;;;;;15.18;9.23;;;;;;;2.72;100.00;67080.19;4977190;28;20134;-84
2022/12/27 05:06:13;;;;;;;15.30;8.30;;;;;;;2.73;100.00;67075.50;4960012;28;20413;-84
2022/12/27 05:14:09;;;;;;;18.45;8.95;;;;;;;;;;4959647;28;20042;-83
2022/12/27 05:16:40;;;;;;;15.70;8.50;;;;;;;2.73;100.00;67080.75;4958522;28;20043;-83
2022/12/27 05:19:06;;;;;;;13.27;5.88;;;;;;;;;;4957009;28;20043;-83
2022/12/27 05:21:38;;;;;;;11.35;7.80;;;;;;;;;;4959091;28;20560;-83
2022/12/27 05:26:47;;;;;;;17.75;6.72;;;;;;;;;;4963507;28;20133;-83
2022/12/27 05:29:13;;;;;;;15.45;8.20;;;;;;;2.79;100.00;67086.94;4961824;28;20495;-83
2022/12/27 05:31:38;;;;;;;14.50;5.45;;;;;;;;;;4963186;28;20153;-83
2022/12/27 05:34:05;;;;;;;15.60;6.75;;;;;;;2.85;100.00;67088.44;4963328;28;20042;-83
2022/12/27 05:36:31;;;;;;;10.63;5.55;;;;;;;2.83;100.00;67091.47;4963969;28;20034;-83
2022/12/27 05:38:58;;;;;;;10.13;6.22;;;;;;;2.82;100.00;67085.06;4965064;28;20094;-83
2022/12/27 05:41:23;;;;;;;14.48;4.72;;;;;;;;;;4961067;28;20142;-83
2022/12/27 05:43:49;;;;;;;13.75;6.75;;;;;;;2.86;100.00;67090.16;4959057;28;20125;-83
2022/12/27 05:46:15;;;;;;;12.80;6.60;;;;;;;;;;4959607;28;20101;-83
2022/12/27 05:48:41;;;;;;;15.98;6.63;;;;;;;2.82;100.00;67085.66;4961401;28;20046;-82
2022/12/27 05:51:12;;;;;;;13.10;5.70;;;;;;;2.84;100.00;67095.22;4960372;28;20039;-83
2022/12/27 05:53:38;;;;;;;13.57;5.95;;;;;;;2.84;100.00;67092.59;4963662;28;20049;-83
2022/12/27 05:56:04;;;;;;;11.68;4.93;;;;;;;2.81;100.00;67084.50;4959889;28;20043;-83
2022/12/27 05:58:30;;;;;;;11.07;4.10;;;;;;;2.84;100.00;67092.59;4958074;28;20059;-83
2022/12/27 06:00:56;;;;;;;7.47;3.92;;;;;;;;;;4960058;28;20126;-83
2022/12/27 06:03:21;;;;;;;9.77;4.90;;;;;;;;;;4959188;28;20059;-82
2022/12/27 06:05:47;;;;;;;12.82;5.25;;;;;;;;;;4958850;28;20043;-82
2022/12/27 06:08:12;;;;;;;10.13;4.40;;;;;;;2.81;100.00;67089.78;4959521;28;20131;-82
2022/12/27 06:10:38;;;;;;;15.10;6.40;;;;;;;2.81;100.00;67089.78;4960609;28;20063;-82
2022/12/27 06:13:03;;;;;;;10.45;5.70;;;;;;;;;;4961592;28;20511;-83
2022/12/27 06:15:29;;;;;;;10.48;5.82;;;;;;;2.77;100.00;67085.28;4955862;28;20126;-83
2022/12/27 06:17:54;;;;;;;16.08;5.30;;;;;;;;;;4959014;28;20124;-83
2022/12/27 06:20:20;;;;;;;15.93;4.20;;;;;;;2.74;100.00;67081.88;4960203;28;20466;-83
2022/12/27 06:22:46;;;;;;;11.65;5.28;;;;;;;;;;4959505;28;20049;-83
2022/12/27 06:25:11;;;;;;;10.93;4.60;;;;;;;;;;4958469;28;20039;-82
2022/12/27 06:27:36;;;;;;;11.80;5.93;;;;;;;2.69;100.00;67079.44;4960456;28;20058;-83
2022/12/27 06:30:02;;;;;;;9.40;4.82;;;;;;;2.70;100.00;67070.06;4959030;28;20110;-83
2022/12/27 06:32:27;;;;;;;13.98;6.05;;;;;;;2.67;100.00;67077.19;4957825;28;20058;-83
2022/12/27 06:34:53;;;;;;;12.77;5.80;;;;;;;2.66;100.00;67073.44;4956496;28;20050;-83
2022/12/27 06:37:18;;;;;;;15.18;6.30;;;;;;;;;;4957645;28;20565;-83
2022/12/27 06:39:44;;;;;;;14.90;5.72;;;;;;;2.61;100.00;67067.22;4960770;28;20320;-82
2022/12/27 06:42:09;;;;;;;13.02;5.28;;;;;;;2.60;100.00;67068.75;4956108;28;20064;-82
2022/12/27 06:44:35;;;;;;;14.38;6.43;;;;;;;2.59;100.00;67059.72;4960875;28;20059;-83
2022/12/27 06:47:00;;;;;;;11.48;5.53;;;;;;;2.58;100.00;67063.84;4959733;28;20062;-83
2022/12/27 06:49:26;;;;;;;13.13;6.78;;;;;;;2.57;100.00;67062.72;4957851;28;20058;-83
2022/12/27 06:51:51;;;;;;;17.55;5.85;;;;;;;2.54;100.00;67059.34;4959481;28;20047;-82
2022/12/27 06:54:17;;;;;;;14.25;6.60;;;;;;;;;;4954504;28;20045;-83
2022/12/27 06:56:43;;;;;;;14.27;6.28;;;;;;;2.52;100.00;67057.09;4958788;28;20043;-83
2022/12/27 06:59:08;;;;;;;16.48;7.22;;;;;;;;;;4956581;28;20039;-83
2022/12/27 07:01:33;;;;;;;16.17;7.35;;;;;;;2.54;100.00;67059.91;4960927;28;20058;-82
2022/12/27 07:03:59;;;;;;;14.93;7.82;;;;;;;;;;4959827;28;20034;-82
2022/12/27 07:06:25;;;;;;;13.68;6.57;;;;;;;;;;4957006;28;20051;-83
2022/12/27 07:08:51;;;;;;;14.02;6.57;;;;;;;2.50;100.00;67047.50;4956373;28;20051;-82
2022/12/27 07:11:18;;;;;;;19.25;7.40;;;;;;;2.52;100.00;67057.09;4962045;28;20089;-83
2022/12/27 07:13:46;;;;;;;18.23;7.95;;;;;;;2.50;100.00;67050.13;4972913;28;20039;-82
2022/12/27 07:16:15;;;;;;;10.90;6.10;;;;;;;2.49;100.00;67054.28;4974337;28;20701;-82
2022/12/27 07:18:41;;;;;;;;;;;;;;;2.53;100.00;67058.78;4969331;28;20073;-82
2022/12/27 07:21:12;;;;;;;16.42;6.80;;;;;;;2.45;100.00;67055.59;4969050;28;19918;-82
2022/12/27 07:23:38;;;;;;;11.43;4.85;;;;;;;;;;4972818;28;20035;-82
2022/12/27 07:26:04;;;;;;;16.83;6.88;;;;;;;;;;4968603;28;20074;-82
2022/12/27 07:28:32;;;;;;;17.13;6.15;;;;;;;;;;4971834;28;20138;-85
2022/12/27 07:30:58;;;;;;;16.20;6.10;;;;;;;2.51;100.00;67056.53;4961982;28;20483;-85
2022/12/27 07:33:23;;;;;;;16.17;7.10;;;;;;;2.53;100.00;67058.22;4958702;28;20054;-83
2022/12/27 07:35:49;;;;;;;21.77;6.60;;;;;;;2.53;100.00;67053.50;4960461;28;20042;-83
2022/12/27 07:38:17;;;;;;;14.48;5.90;;;;;;;2.56;100.00;67056.91;4960057;28;20038;-82
2022/12/27 07:40:42;;;;;;;11.75;6.03;;;;;;;2.57;100.00;67057.47;4961248;28;20039;-85
2022/12/27 07:43:08;;;;;;;11.55;5.25;;;;;;;2.58;100.00;67064.41;4958620;28;20039;-84
2022/12/27 07:45:33;;;;;;;13.98;6.68;;;;;;;;;;4961330;28;20039;-85
2022/12/27 07:48:04;;;;;;;13.20;6.05;;;;;;;;;;4956710;28;20066;-85
2022/12/27 07:50:31;;;;;;;14.70;7.53;;;;;;;2.61;100.00;67067.78;4959844;28;20042;-83
2022/12/27 07:52:56;;;;;;;15.65;7.72;;;;;;;;;;4936860;28;20043;-83
2022/12/27 07:55:21;;;;;;;15.77;7.32;;;;;;;2.63;100.00;67070.03;4933521;28;20048;-83
2022/12/27 07:57:47;;;;;;;15.15;6.13;;;;;;;2.63;100.00;67070.03;4936918;28;20044;-82
2022/12/27 08:00:12;;;;;;;15.82;6.45;;;;;;;2.61;100.00;67067.22;4937980;28;20126;-83
2022/12/27 08:02:37;;;;;;;12.65;6.38;;;;;;;;;;4935939;28;20043;-83
2022/12/27 08:05:04;;;;;;;15.90;7.50;;;;;;;;;;4936090;28;20051;-83
2022/12/27 08:07:29;;;;;;;16.00;8.35;;;;;;;;;;4938131;28;20047;-82
2022/12/27 08:09:54;;;;;;;11.02;5.28;;;;;;;;;;4938420;28;20072;-83
2022/12/27 08:12:19;;;;;;;11.88;6.45;;;;;;;2.68;100.00;67075.69;4933143;28;20061;-83
2022/12/27 08:14:45;;;;;;;13.73;5.57;;;;;;;2.69;100.00;67079.44;4931712;28;20098;-82
2022/12/27 08:17:23;;;;;;;13.68;5.50;;;;;;;2.72;100.00;67080.19;4931872;28;20703;-82
2022/12/27 08:19:52;;;;;;;10.00;5.63;;;;;;;;;;4952781;28;20051;-82
2022/12/27 08:22:17;;;;;;;18.27;7.22;;;;;;;;;;4957922;28;20145;-82
2022/12/27 08:24:43;;;;;;;22.20;8.23;;;;;;;2.75;100.00;67083.00;4955860;28;20567;-82
2022/12/27 08:27:08;;;;;;;16.80;8.18;;;;;;;;;;4958068;28;20109;-82
2022/12/27 08:29:34;;;;;;;13.85;4.47;;;;;;;2.76;100.00;67078.88;4959310;28;20522;-82
2022/12/27 08:31:59;;;;;;;12.00;5.07;;;;;;;2.78;100.00;67086.38;4960243;28;20057;-83
2022/12/27 08:34:25;;;;;;;15.25;5.93;;;;;;;2.81;100.00;67089.22;4958290;28;20039;-83
2022/12/27 08:36:50;;;;;;;12.00;5.45;;;;;;;;;;4957347;28;20155;-82
2022/12/27 08:39:16;;;;;;;10.40;4.45;;;;;;;2.84;100.00;67093.16;4957208;28;20094;-83
2022/12/27 08:41:41;;;;;;;15.38;4.97;;;;;;;;;;4955146;28;20031;-82
2022/12/27 08:44:07;;;;;;;12.52;5.05;;;;;;;;;;4955089;28;20114;-82
2022/12/27 08:46:32;;;;;;;12.73;5.05;;;;;;;2.92;100.00;67096.91;4954539;28;20047;-82
2022/12/27 08:48:58;;;;;;;10.65;6.07;;;;;;;2.94;100.00;67098.63;4963722;28;20652;-81
2022/12/27 08:51:24;;;;;;;13.05;7.40;;;;;;;2.97;100.00;67106.69;4964385;28;20121;-81
2022/12/27 08:53:49;;;;;;;20.35;7.47;;;;;;;;;;4962718;28;20053;-81
2022/12/27 08:56:14;;;;;;;17.70;6.88;;;;;;;3.04;100.00;67114.56;4963594;28;20133;-81
2022/12/27 08:58:39;;;;;;;14.43;7.75;;;;;;;;;;4965739;28;20103;-81
2022/12/27 09:01:09;;;;;;;13.40;7.60;;;;;;;3.08;100.00;67119.06;4963007;28;21417;-81
2022/12/27 09:03:34;;;;;;;;;;;;;;;3.08;100.00;67119.66;4962854;28;20051;-81
2022/12/27 09:06:18;;;;;;;13.45;7.20;;;;;;;3.04;100.00;67114.56;4956714;28;19993;-81
2022/12/27 09:08:45;;;;;;;13.43;7.43;;;;;;;3.07;100.00;67117.97;4974623;28;20138;-81
2022/12/27 09:11:13;;;;;;;18.20;9.98;;;;;;;3.11;100.00;67125.09;4962971;28;20121;-81
2022/12/27 09:13:39;;;;;;;18.75;7.03;;;;;;;;;;4962343;28;20050;-81
2022/12/27 09:16:16;;;;;;;17.30;9.82;;;;;;;3.19;100.00;67131.47;4962338;28;20612;-81
2022/12/27 09:18:42;;;;;;;17.70;10.45;;;;;;;3.22;100.00;67129.59;4978950;28;20043;-81
2022/12/27 09:21:09;;;;;;;16.35;7.43;;;;;;;;;;4964543;28;20039;-81
2022/12/27 09:23:35;;;;;;;15.75;8.52;;;;;;;3.29;100.00;67142.78;4966446;28;20409;-81
2022/12/27 09:26:12;;;;;;;17.13;8.65;;;;;;;3.35;100.00;67143.72;4964851;28;20042;-81
2022/12/27 09:28:39;;;;;;;18.17;10.07;;;;;;;3.35;100.00;67149.53;4965005;28;20146;-81
2022/12/27 09:31:05;;;;;;;19.90;9.60;;;;;;;3.41;100.00;67155.19;4963486;28;20542;-81
2022/12/27 09:33:30;;;;;;;19.23;9.40;;;;;;;3.44;100.00;67158.56;4962138;28;20126;-81
2022/12/27 09:36:08;;;;;;;19.83;9.73;;;;;;;3.46;100.00;67156.13;4963683;28;20113;-81
2022/12/27 09:38:37;;;;;;;18.10;8.82;;;;;;;3.48;100.00;67155.16;4970285;28;20069;-81
2022/12/27 09:41:05;;;;;;;18.23;9.65;;;;;;;3.48;100.00;67163.06;4964186;28;20043;-81
2022/12/27 09:43:41;;;;;;;18.92;9.10;;;;;;;3.49;100.00;67156.31;4962164;28;20043;-81
2022/12/27 09:46:11;;;;;;;23.20;11.75;;;;;;;;;;4963412;28;20046;-81
2022/12/27 09:48:38;;;;;;;17.63;9.77;;;;;;;;;;4959718;28;20090;-81
2022/12/27 09:51:16;;;;;;;16.20;9.05;;;;;;;;;;4962429;28;20043;-81
2022/12/27 09:53:49;;;;;;;21.30;11.10;;;;;;;3.63;100.00;67180.00;4968509;28;20038;-81
2022/12/27 09:56:23;;;;;;;19.70;10.80;;;;;;;3.65;100.00;67184.88;4961798;28;20043;-81
2022/12/27 09:58:51;;;;;;;25.15;12.93;;;;;;;;;;4963238;28;20651;-81
2022/12/27 10:01:18;;;;;;;23.95;10.82;;;;;;;;;;4963370;28;20035;-81
2022/12/27 10:03:43;;;;;;;12.57;8.50;;;;;;;;;;4960037;28;20824;-81
2022/12/27 10:06:23;;;;;;;19.77;9.43;;;;;;;;;;4961928;28;20067;-81
2022/12/27 10:08:54;;;;;;;21.52;11.75;;;;;;;3.76;100.00;67188.81;4971812;28;20146;-81
2022/12/27 10:11:35;;;;;;;20.88;11.23;;;;;;;3.79;100.00;67198.03;4961539;28;20055;-81
2022/12/27 10:14:38;;;;;;;19.50;11.25;;;;;;;3.82;100.00;67201.41;4961686;28;20041;-81
2022/12/27 10:17:06;;;;;;;13.70;7.53;;;;;;;;;;4970257;28;20058;-81
2022/12/27 10:20:15;;;;;;;20.93;11.80;;;;;;;3.82;100.00;67204.03;4962544;28;20045;-81
2022/12/27 10:22:44;;;;;;;;;;;;;;;3.82;100.00;67196.16;4975005;28;20042;-81
2022/12/27 10:25:11;;;;;;;21.92;12.93;;;;;;;;;;4995156;28;20381;-81
2022/12/27 10:27:36;;;;;;;28.42;12.15;;;;;;;;;;4989725;28;20066;-81
2022/12/27 10:30:05;;;;;;;19.50;10.07;;;;;;;;;;4991436;28;20055;-81
2022/12/27 10:32:31;;;;;;;21.83;12.95;;;;;;;;;;4981620;28;20520;-81
2022/12/27 10:35:00;;;;;;;22.75;11.20;;;;;;;;;;4986114;28;20121;-81
2022/12/27 10:37:26;;;;;;;15.48;11.32;;;;;;;;;;4994642;28;20038;-81
2022/12/27 10:39:51;;;;;;;18.38;11.50;;;;;;;3.91;100.00;67205.19;4982747;28;20121;-81
2022/12/27 10:42:33;;;;;;;20.42;11.85;;;;;;;3.92;100.00;67211.59;4982502;28;20065;-81
2022/12/27 10:45:35;;;;;;;16.75;11.43;;;;;;;3.94;100.00;67213.81;4994070;28;20038;-81
2022/12/27 10:48:18;;;;;;;18.20;11.98;;;;;;;3.99;100.00;67222.09;4996839;28;20510;-81
2022/12/27 10:50:57;;;;;;;22.27;10.27;;;;;;;4.01;100.00;67216.47;4996480;28;20054;-81
2022/12/27 10:53:37;;;;;;;18.13;10.48;;;;;;;4.05;100.00;67218.34;4987318;28;20053;-81
2022/12/27 10:56:16;;;;;;;21.83;12.43;;;;;;;4.12;100.00;67233.59;4979925;28;20050;-81
2022/12/27 10:58:49;;;;;;;20.90;11.90;;;;;;;4.17;100.00;67239.81;4998088;28;20133;-81
2022/12/27 11:01:23;;;;;;;23.33;11.48;;;;;;;4.21;100.00;67244.31;4989785;28;20066;-81
2022/12/27 11:03:50;;;;;;;19.42;10.57;;;;;;;4.24;100.00;67247.69;4982674;28;20129;-81
2022/12/27 11:06:17;;;;;;;16.77;10.20;;;;;;;;;;4988872;28;20042;-81
2022/12/27 11:08:42;;;;;;;17.42;10.27;;;;;;;4.32;100.00;67258.22;4989930;28;20053;-81
2022/12/27 11:11:26;;;;;;;13.85;9.35;;;;;;;4.32;100.00;67250.34;4980809;28;20038;-81
2022/12/27 11:14:07;;;;;;;21.55;9.70;;;;;;;4.37;100.00;67256.53;4987708;28;20049;-82
2022/12/27 11:16:34;;;;;;;17.75;10.82;;;;;;;;;;4984119;28;20080;-81
2022/12/27 11:19:00;;;;;;;18.33;8.15;;;;;;;4.40;100.00;67264.63;4982205;28;20035;-81
2022/12/27 11:21:27;;;;;;;15.63;9.65;;;;;;;;;;4980296;28;20483;-81
2022/12/27 11:23:56;;;;;;;17.85;9.85;;;;;;;4.55;100.00;67275.72;4982103;28;20494;-82
2022/12/27 11:26:27;;;;;;;14.05;8.32;;;;;;;4.60;100.00;67281.91;4976729;28;20057;-82
2022/12/27 11:28:56;;;;;;;18.63;11.13;;;;;;;4.65;100.00;67292.28;4980757;28;20297;-82
2022/12/27 11:31:36;;;;;;;;;;;;;;;4.70;100.00;67292.66;4978455;28;20070;-82
2022/12/27 11:34:07;;;;;;;20.63;9.30;;;;;;;4.69;100.00;67297.38;4994100;28;20405;-82
2022/12/27 11:36:43;;;;;;;16.02;8.90;;;;;;;4.79;100.00;67299.63;4988228;28;20056;-82
2022/12/27 11:39:39;;;;;;;13.95;8.95;;;;;;;4.88;100.00;67312.41;4984583;28;20379;-81
2022/12/27 11:42:07;;;;;;;14.98;7.40;;;;;;;;;;4983968;28;20050;-81
2022/12/27 11:44:37;;;;;;;12.30;7.95;;;;;;;4.98;100.00;67324.28;4981205;28;20573;-81
2022/12/27 11:47:10;;;;;;;17.40;8.38;;;;;;;;;;4990295;28;20081;-82
2022/12/27 11:49:43;;;;;;;12.05;6.47;;;;;;;5.09;100.00;67341.41;4992635;28;20106;-82
2022/12/27 11:52:31;;;;;;;14.15;7.40;;;;;;;5.18;100.00;67346.31;4989403;28;20054;-82
2022/12/27 11:55:11;;;;;;;18.67;7.53;;;;;;;5.24;100.00;67351.94;4995960;28;20049;-81
2022/12/27 11:57:39;;;;;;;16.55;7.78;;;;;;;;;;4984884;28;20139;-81
2022/12/27 12:00:18;;;;;;;10.50;5.55;;;;;;;5.39;100.00;67366.25;4979845;28;20050;-82
2022/12/27 12:03:07;;;;;;;13.07;6.57;;;;;;;5.56;100.00;67387.53;4991785;28;20044;-81
2022/12/27 12:06:12;;;;;;;11.50;6.57;;;;;;;5.66;100.00;67404.66;4980850;28;20372;-81
2022/12/27 12:09:01;;;;;;;12.77;6.20;;;;;;;5.65;100.00;67397.69;4977045;28;20046;-81
2022/12/27 12:12:02;;;;;;;16.92;7.22;;;;;;;5.62;100.00;67394.31;4987987;28;20045;-81
2022/12/27 12:15:06;;;;;;;17.90;6.95;;;;;;;5.53;100.00;67384.16;4986262;28;20066;-81
2022/12/27 12:17:38;;;;;;;14.27;7.15;;;;;;;5.48;100.00;67379.06;4982868;28;20042;-81
2022/12/27 12:20:32;;;;;;;13.25;6.30;;;;;;;5.52;100.00;67383.00;4986488;28;20104;-81
2022/12/27 12:23:16;;;;;;;15.85;7.40;;;;;;;;;;5010957;28;20050;-81
2022/12/27 12:26:03;;;;;;;12.73;6.63;;;;;;;5.66;100.00;67398.81;5011328;28;20038;-81
2022/12/27 12:28:31;;;;;;;12.30;7.55;;;;;;;5.76;100.00;67409.56;4989841;28;20136;-81
2022/12/27 12:31:26;;;;;;;15.13;7.10;;;;;;;5.76;100.00;67409.56;4971962;28;20047;-81
2022/12/27 12:34:24;;;;;;;16.35;7.18;;;;;;;;;;5006302;28;20038;-81
2022/12/27 12:37:14;;;;;;;13.63;6.45;;;;;;;5.83;100.00;67417.47;4946529;28;20069;-81
2022/12/27 12:39:45;;;;;;;11.90;5.90;;;;;;;;;;4959811;28;20046;-81
2022/12/27 12:42:21;;;;;;;15.25;6.63;;;;;;;5.93;100.00;67434.09;4964407;28;20054;-81
2022/12/27 12:45:15;;;;;;;13.65;6.63;;;;;;;5.99;100.00;67435.03;4983712;28;20042;-80
2022/12/27 12:48:14;;;;;;;11.82;6.68;;;;;;;6.06;100.00;67442.94;4984313;28;20057;-81
2022/12/27 12:50:58;;;;;;;8.77;5.45;;;;;;;6.06;100.00;67448.22;4984481;28;20069;-81
2022/12/27 12:53:42;;;;;;;15.25;6.75;;;;;;;;;;4989085;28;20042;-80
2022/12/27 12:56:26;;;;;;;16.20;6.45;;;;;;;;;;4981787;28;20256;-81
2022/12/27 12:59:29;;;;;;;10.80;5.40;;;;;;;6.27;100.00;67466.09;5010615;28;20057;-81
2022/12/27 13:02:17;;;;;;;10.43;5.68;;;;;;;6.37;100.00;67477.41;4950175;28;20182;-81
2022/12/27 13:04:54;;;;;;;11.55;5.22;;;;;;;;;;4990762;28;20053;-81
2022/12/27 13:07:19;;;;;;;12.43;4.80;;;;;;;;;;4992530;28;20054;-81
2022/12/27 13:09:56;;;;;;;10.65;5.03;;;;;;;;;;4982988;28;20097;-81
2022/12/27 13:12:30;;;;;;;13.25;5.05;;;;;;;;;;4985719;28;20603;-81
2022/12/27 13:15:38;;;;;;;13.95;4.80;;;;;;;6.26;100.00;67464.97;4990690;28;20530;-81
2022/12/27 13:18:21;;;;;;;9.13;4.95;;;;;;;6.26;100.00;67462.31;4980898;28;20056;-81
2022/12/27 13:20:52;;;;;;;11.35;4.60;;;;;;;6.30;100.00;67474.78;4997217;28;20047;-81
2022/12/27 13:23:36;;;;;;;12.60;5.00;;;;;;;;;;4960278;28;1089644;-81
2022/12/27 13:26:20;;;;;;;10.30;4.65;;;;;;;6.35;100.00;67475.16;4987039;28;20042;-81
2022/12/27 13:28:48;;;;;;;12.77;4.93;;;;;;;6.39;100.00;67484.97;5002887;28;20046;-81
2022/12/27 13:31:53;;;;;;;12.15;4.72;;;;;;;6.47;100.00;67488.16;4986819;28;20065;-81
2022/12/27 13:34:41;;;;;;;9.38;3.63;;;;;;;6.40;100.00;67480.81;4980936;28;20177;-81
2022/12/27 13:37:32;;;;;;;11.88;3.38;;;;;;;6.37;100.00;67477.41;4990011;28;20050;-81
2022/12/27 13:40:38;;;;;;;8.02;4.18;;;;;;;6.36;100.00;67473.06;4999406;28;20066;-81
2022/12/27 13:43:09;;;;;;;12.50;4.13;;;;;;;;;;4999261;28;20081;-81
2022/12/27 13:45:46;;;;;;;9.85;4.20;;;;;;;6.41;100.00;67486.66;4981621;28;20062;-80
2022/12/27 13:48:49;;;;;;;10.63;4.07;;;;;;;6.36;100.00;67476.28;4984760;28;20046;-81
2022/12/27 13:51:36;;;;;;;10.05;4.80;;;;;;;;;;4990537;28;20045;-81
2022/12/27 13:54:21;;;;;;;11.60;4.43;;;;;;;;;;4990486;28;20046;-80
2022/12/27 13:56:50;;;;;;;7.45;3.78;;;;;;;;;;5003032;28;20046;-80
2022/12/27 13:59:15;;;;;;;;;;;;;;;;;;4990279;28;20046;-81
2022/12/27 14:01:46;;;;;;;8.05;4.20;;;;;;;;;;4982198;28;19968;-81
2022/12/27 14:04:30;;;;;;;12.15;4.13;;;;;;;6.34;100.00;67474.03;4983549;28;20129;-81
2022/12/27 14:07:20;;;;;;;8.63;3.95;;;;;;;6.34;100.00;67474.03;5002413;28;20047;-81
2022/12/27 14:09:45;;;;;;;11.68;3.90;;;;;;;6.30;100.00;67469.50;5004243;28;20096;-81
2022/12/27 14:12:35;;;;;;;11.30;3.85;;;;;;;6.27;100.00;67466.69;4985577;28;20447;-81
2022/12/27 14:15:05;;;;;;;7.70;3.22;;;;;;;6.25;100.00;67464.41;4979225;28;20039;-81
2022/12/27 14:17:30;;;;;;;11.05;4.18;;;;;;;;;;4968695;28;20406;-81
2022/12/27 14:20:01;;;;;;;8.37;3.27;;;;;;;;;;4964029;28;20042;-81
2022/12/27 14:22:32;;;;;;;10.38;3.83;;;;;;;;;;4969680;28;20294;-81
2022/12/27 14:25:12;;;;;;;11.80;4.65;;;;;;;6.19;100.00;67457.63;4959696;28;20073;-81
2022/12/27 14:27:56;;;;;;;10.85;3.53;;;;;;;;;;4965145;28;20043;-81
2022/12/27 14:30:51;;;;;;;8.75;3.35;;;;;;;6.12;100.00;67446.50;4968386;28;20039;-81
2022/12/27 14:33:55;;;;;;;7.55;3.40;;;;;;;6.09;100.00;67452.16;4965862;28;20126;-81